Tajique, New Mexico
Current Conditions -  °F | °C
As of 9:55 PM on Saturday 22 Nov 2014 (Local Time) from K0E0 Reporting Station
Clear Clear  
Wind Chill: 38°   Ceiling: Unl
Heat Index: 42°   Visibility: 10mi
Dew Point: 15°   Wind: 7mph
Humidity: 33%   Direction: 310°NW
Pressure: 29.86"   Gusts: NA
Location:  34.75°N, 106.29°W
Report Text: K0E0 230455Z AUTO 31006KT 10SM CLR 06/M09 A2986 RMK AO2 T00581094
Loading
Personal Weather Stations






























Interactive Weather Map New forecast layout! Learn more

10-Day Weather Forecast

Advertisements
Track Severe Weather on mobile